sensor_id;sensor_type;location;lat;lon;timestamp;temperature;humidity
64032;DHT22;50278;47.796;11.968;2023-04-22T00:00:00;6.79;118.99
64032;DHT22;50278;47.796;11.968;2023-04-22T00:02:26;6.71;118.99
64032;DHT22;50278;47.796;11.968;2023-04-22T00:04:51;6.66;118.99
64032;DHT22;50278;47.796;11.968;2023-04-22T00:07:17;6.54;118.99
64032;DHT22;50278;47.796;11.968;2023-04-22T00:09:43;6.38;118.99
64032;DHT22;50278;47.796;11.968;2023-04-22T00:12:09;6.38;118.99
64032;DHT22;50278;47.796;11.968;2023-04-22T00:14:37;6.09;118.99
64032;DHT22;50278;47.796;11.968;2023-04-22T00:17:03;6.08;118.99
64032;DHT22;50278;47.796;11.968;2023-04-22T00:19:28;6.06;118.99
64032;DHT22;50278;47.796;11.968;2023-04-22T00:21:54;6.06;118.99
64032;DHT22;50278;47.796;11.968;2023-04-22T00:24:20;6.13;118.99
64032;DHT22;50278;47.796;11.968;2023-04-22T00:26:45;6.05;118.99
64032;DHT22;50278;47.796;11.968;2023-04-22T00:29:11;5.99;118.99
64032;DHT22;50278;47.796;11.968;2023-04-22T00:31:36;6.04;118.99
64032;DHT22;50278;47.796;11.968;2023-04-22T00:34:02;6.02;118.99
64032;DHT22;50278;47.796;11.968;2023-04-22T00:36:27;5.92;118.99
64032;DHT22;50278;47.796;11.968;2023-04-22T00:38:53;5.78;118.99
64032;DHT22;50278;47.796;11.968;2023-04-22T00:41:18;5.76;118.99
64032;DHT22;50278;47.796;11.968;2023-04-22T00:43:44;5.68;118.99
64032;DHT22;50278;47.796;11.968;2023-04-22T00:46:10;5.69;118.99
64032;DHT22;50278;47.796;11.968;2023-04-22T00:48:36;5.66;118.99
64032;DHT22;50278;47.796;11.968;2023-04-22T00:51:03;5.78;118.99
64032;DHT22;50278;47.796;11.968;2023-04-22T00:53:29;5.78;118.99
64032;DHT22;50278;47.796;11.968;2023-04-22T00:55:54;5.75;118.99
64032;DHT22;50278;47.796;11.968;2023-04-22T00:58:21;5.76;118.99
64032;DHT22;50278;47.796;11.968;2023-04-22T01:00:48;5.62;118.99
64032;DHT22;50278;47.796;11.968;2023-04-22T01:03:14;5.53;118.99
64032;DHT22;50278;47.796;11.968;2023-04-22T01:05:40;5.52;118.99
64032;DHT22;50278;47.796;11.968;2023-04-22T01:08:05;5.47;118.99
64032;DHT22;50278;47.796;11.968;2023-04-22T01:14:18;5.46;118.99
64032;DHT22;50278;47.796;11.968;2023-04-22T01:16:44;5.37;118.99
64032;DHT22;50278;47.796;11.968;2023-04-22T01:19:10;5.36;118.99
64032;DHT22;50278;47.796;11.968;2023-04-22T01:21:38;5.37;118.99
64032;DHT22;50278;47.796;11.968;2023-04-22T01:24:04;5.33;118.99
64032;DHT22;50278;47.796;11.968;2023-04-22T01:26:30;5.33;118.99
64032;DHT22;50278;47.796;11.968;2023-04-22T01:28:56;5.32;118.99
64032;DHT22;50278;47.796;11.968;2023-04-22T01:31:22;5.28;118.99
64032;DHT22;50278;47.796;11.968;2023-04-22T01:33:49;5.26;118.99
64032;DHT22;50278;47.796;11.968;2023-04-22T01:36:16;5.22;118.99
64032;DHT22;50278;47.796;11.968;2023-04-22T01:38:41;5.26;118.99
64032;DHT22;50278;47.796;11.968;2023-04-22T01:41:07;5.21;118.99
64032;DHT22;50278;47.796;11.968;2023-04-22T01:43:33;5.13;118.99
64032;DHT22;50278;47.796;11.968;2023-04-22T01:46:03;5.25;118.99
64032;DHT22;50278;47.796;11.968;2023-04-22T01:48:29;5.36;118.99
64032;DHT22;50278;47.796;11.968;2023-04-22T01:50:54;5.35;118.99
64032;DHT22;50278;47.796;11.968;2023-04-22T01:53:20;5.30;118.99
64032;DHT22;50278;47.796;11.968;2023-04-22T01:55:46;5.31;118.99
64032;DHT22;50278;47.796;11.968;2023-04-22T01:58:12;5.27;118.99
64032;DHT22;50278;47.796;11.968;2023-04-22T02:00:38;5.20;118.99
64032;DHT22;50278;47.796;11.968;2023-04-22T02:03:04;5.22;118.99
64032;DHT22;50278;47.796;11.968;2023-04-22T02:05:29;5.23;118.99
64032;DHT22;50278;47.796;11.968;2023-04-22T02:07:55;5.16;118.99
64032;DHT22;50278;47.796;11.968;2023-04-22T02:10:20;5.19;118.99
64032;DHT22;50278;47.796;11.968;2023-04-22T02:12:46;5.16;118.99
64032;DHT22;50278;47.796;11.968;2023-04-22T02:15:13;5.17;118.99
64032;DHT22;50278;47.796;11.968;2023-04-22T02:17:40;5.11;118.99
64032;DHT22;50278;47.796;11.968;2023-04-22T02:20:07;5.19;118.99
64032;DHT22;50278;47.796;11.968;2023-04-22T02:22:33;5.27;118.99
64032;DHT22;50278;47.796;11.968;2023-04-22T02:24:58;5.32;118.99
64032;DHT22;50278;47.796;11.968;2023-04-22T02:27:24;5.33;118.99
64032;DHT22;50278;47.796;11.968;2023-04-22T02:29:50;5.35;118.99
64032;DHT22;50278;47.796;11.968;2023-04-22T02:32:16;5.43;118.99
64032;DHT22;50278;47.796;11.968;2023-04-22T02:34:42;5.39;118.99
64032;DHT22;50278;47.796;11.968;2023-04-22T02:37:07;5.33;118.99
64032;DHT22;50278;47.796;11.968;2023-04-22T02:39:33;5.25;118.99
64032;DHT22;50278;47.796;11.968;2023-04-22T02:41:59;5.19;118.99
64032;DHT22;50278;47.796;11.968;2023-04-22T02:44:26;5.01;118.99
64032;DHT22;50278;47.796;11.968;2023-04-22T02:46:52;4.95;118.99
64032;DHT22;50278;47.796;11.968;2023-04-22T02:49:17;5.04;118.99
64032;DHT22;50278;47.796;11.968;2023-04-22T02:51:44;5.06;118.99
64032;DHT22;50278;47.796;11.968;2023-04-22T02:54:09;5.02;118.99
64032;DHT22;50278;47.796;11.968;2023-04-22T02:56:35;4.98;118.99
64032;DHT22;50278;47.796;11.968;2023-04-22T02:59:00;4.96;118.99
64032;DHT22;50278;47.796;11.968;2023-04-22T03:01:26;4.90;118.99
64032;DHT22;50278;47.796;11.968;2023-04-22T03:03:55;4.90;118.99
64032;DHT22;50278;47.796;11.968;2023-04-22T03:06:22;4.88;118.99
64032;DHT22;50278;47.796;11.968;2023-04-22T03:08:47;4.68;118.99
64032;DHT22;50278;47.796;11.968;2023-04-22T03:11:13;4.63;118.99
64032;DHT22;50278;47.796;11.968;2023-04-22T03:13:38;4.65;118.99
64032;DHT22;50278;47.796;11.968;2023-04-22T03:16:04;4.63;118.99
64032;DHT22;50278;47.796;11.968;2023-04-22T03:18:31;4.49;118.99
64032;DHT22;50278;47.796;11.968;2023-04-22T03:20:56;4.51;118.99
64032;DHT22;50278;47.796;11.968;2023-04-22T03:23:23;4.49;118.99
64032;DHT22;50278;47.796;11.968;2023-04-22T03:25:49;4.41;118.99
64032;DHT22;50278;47.796;11.968;2023-04-22T03:28:16;4.34;118.99
64032;DHT22;50278;47.796;11.968;2023-04-22T03:30:42;4.30;118.99
64032;DHT22;50278;47.796;11.968;2023-04-22T03:33:08;4.16;118.99
64032;DHT22;50278;47.796;11.968;2023-04-22T03:35:40;4.15;118.99
64032;DHT22;50278;47.796;11.968;2023-04-22T03:38:05;4.13;118.99
64032;DHT22;50278;47.796;11.968;2023-04-22T03:40:34;4.14;118.99
64032;DHT22;50278;47.796;11.968;2023-04-22T03:43:06;4.09;118.99
64032;DHT22;50278;47.796;11.968;2023-04-22T03:45:32;4.14;118.99
64032;DHT22;50278;47.796;11.968;2023-04-22T03:48:12;4.21;118.99
64032;DHT22;50278;47.796;11.968;2023-04-22T03:50:44;4.15;118.99
64032;DHT22;50278;47.796;11.968;2023-04-22T03:53:10;4.21;118.99
64032;DHT22;50278;47.796;11.968;2023-04-22T03:55:37;4.29;118.99
64032;DHT22;50278;47.796;11.968;2023-04-22T03:58:02;4.23;118.99
64032;DHT22;50278;47.796;11.968;2023-04-22T04:00:28;4.23;118.99
64032;DHT22;50278;47.796;11.968;2023-04-22T04:03:05;4.27;118.99
64032;DHT22;50278;47.796;11.968;2023-04-22T04:05:31;4.13;118.99
64032;DHT22;50278;47.796;11.968;2023-04-22T04:07:56;4.09;118.99
64032;DHT22;50278;47.796;11.968;2023-04-22T04:10:23;4.03;118.99
64032;DHT22;50278;47.796;11.968;2023-04-22T04:12:51;4.09;118.99
64032;DHT22;50278;47.796;11.968;2023-04-22T04:15:18;4.20;118.99
64032;DHT22;50278;47.796;11.968;2023-04-22T04:17:47;4.15;118.99
64032;DHT22;50278;47.796;11.968;2023-04-22T04:20:14;4.19;118.99
64032;DHT22;50278;47.796;11.968;2023-04-22T04:22:40;4.21;118.99
64032;DHT22;50278;47.796;11.968;2023-04-22T04:25:08;4.12;118.99
64032;DHT22;50278;47.796;11.968;2023-04-22T04:27:39;4.20;118.99
64032;DHT22;50278;47.796;11.968;2023-04-22T04:30:09;4.32;118.99
64032;DHT22;50278;47.796;11.968;2023-04-22T04:32:39;4.39;118.99
64032;DHT22;50278;47.796;11.968;2023-04-22T04:35:07;4.45;118.99
64032;DHT22;50278;47.796;11.968;2023-04-22T04:37:33;4.45;118.99
64032;DHT22;50278;47.796;11.968;2023-04-22T04:40:05;4.47;118.99
64032;DHT22;50278;47.796;11.968;2023-04-22T04:42:42;4.49;118.99
64032;DHT22;50278;47.796;11.968;2023-04-22T04:45:13;4.56;118.99
64032;DHT22;50278;47.796;11.968;2023-04-22T04:47:41;4.68;118.99
64032;DHT22;50278;47.796;11.968;2023-04-22T04:50:16;4.83;118.99
64032;DHT22;50278;47.796;11.968;2023-04-22T04:52:42;4.94;118.99
64032;DHT22;50278;47.796;11.968;2023-04-22T04:55:08;5.07;118.99
64032;DHT22;50278;47.796;11.968;2023-04-22T04:57:34;5.23;118.99
64032;DHT22;50278;47.796;11.968;2023-04-22T05:00:00;5.38;118.99
64032;DHT22;50278;47.796;11.968;2023-04-22T05:02:27;5.51;118.99
64032;DHT22;50278;47.796;11.968;2023-04-22T05:04:53;5.67;118.99
64032;DHT22;50278;47.796;11.968;2023-04-22T05:07:18;5.83;118.99
64032;DHT22;50278;47.796;11.968;2023-04-22T05:09:46;5.97;118.99
64032;DHT22;50278;47.796;11.968;2023-04-22T05:12:11;6.07;118.99
64032;DHT22;50278;47.796;11.968;2023-04-22T05:14:37;6.19;118.99
64032;DHT22;50278;47.796;11.968;2023-04-22T05:17:02;6.35;118.99
64032;DHT22;50278;47.796;11.968;2023-04-22T05:19:28;6.51;118.99
64032;DHT22;50278;47.796;11.968;2023-04-22T05:21:55;6.57;118.99
64032;DHT22;50278;47.796;11.968;2023-04-22T05:24:20;6.71;118.99
64032;DHT22;50278;47.796;11.968;2023-04-22T05:26:47;6.82;118.99
64032;DHT22;50278;47.796;11.968;2023-04-22T05:29:16;6.88;118.99
64032;DHT22;50278;47.796;11.968;2023-04-22T05:31:42;6.95;118.99
64032;DHT22;50278;47.796;11.968;2023-04-22T05:34:08;7.02;118.99
64032;DHT22;50278;47.796;11.968;2023-04-22T05:36:34;7.09;118.99
64032;DHT22;50278;47.796;11.968;2023-04-22T05:39:00;7.15;118.99
64032;DHT22;50278;47.796;11.968;2023-04-22T05:41:26;7.23;118.99
64032;DHT22;50278;47.796;11.968;2023-04-22T05:43:53;7.31;118.99
64032;DHT22;50278;47.796;11.968;2023-04-22T05:46:19;7.39;118.99
64032;DHT22;50278;47.796;11.968;2023-04-22T05:48:45;7.49;118.99
64032;DHT22;50278;47.796;11.968;2023-04-22T05:51:36;7.59;118.99
64032;DHT22;50278;47.796;11.968;2023-04-22T05:54:01;7.77;118.99
64032;DHT22;50278;47.796;11.968;2023-04-22T05:56:27;7.88;118.99
64032;DHT22;50278;47.796;11.968;2023-04-22T05:58:52;7.99;118.99
64032;DHT22;50278;47.796;11.968;2023-04-22T06:01:21;8.07;118.99
64032;DHT22;50278;47.796;11.968;2023-04-22T06:04:09;8.19;118.99
64032;DHT22;50278;47.796;11.968;2023-04-22T06:06:35;8.29;118.99
64032;DHT22;50278;47.796;11.968;2023-04-22T06:09:01;8.39;118.99
64032;DHT22;50278;47.796;11.968;2023-04-22T06:11:27;8.52;118.99
64032;DHT22;50278;47.796;11.968;2023-04-22T06:13:53;8.64;118.99
64032;DHT22;50278;47.796;11.968;2023-04-22T06:16:19;8.77;118.99
64032;DHT22;50278;47.796;11.968;2023-04-22T06:18:46;8.89;118.99
64032;DHT22;50278;47.796;11.968;2023-04-22T06:21:12;9.01;118.99
64032;DHT22;50278;47.796;11.968;2023-04-22T06:23:38;9.09;118.99
64032;DHT22;50278;47.796;11.968;2023-04-22T06:26:04;9.25;118.99
64032;DHT22;50278;47.796;11.968;2023-04-22T06:28:36;9.37;118.99
64032;DHT22;50278;47.796;11.968;2023-04-22T06:31:16;9.48;118.99
64032;DHT22;50278;47.796;11.968;2023-04-22T06:33:41;9.62;118.99
64032;DHT22;50278;47.796;11.968;2023-04-22T06:36:07;9.72;118.99
64032;DHT22;50278;47.796;11.968;2023-04-22T06:38:34;9.85;118.99
64032;DHT22;50278;47.796;11.968;2023-04-22T06:41:20;9.98;118.99
64032;DHT22;50278;47.796;11.968;2023-04-22T06:43:48;10.19;118.99
64032;DHT22;50278;47.796;11.968;2023-04-22T06:46:16;10.37;118.99
64032;DHT22;50278;47.796;11.968;2023-04-22T06:49:00;10.57;118.99
64032;DHT22;50278;47.796;11.968;2023-04-22T06:52:02;10.74;118.99
64032;DHT22;50278;47.796;11.968;2023-04-22T06:54:27;10.94;118.99
64032;DHT22;50278;47.796;11.968;2023-04-22T06:56:53;11.25;118.99
64032;DHT22;50278;47.796;11.968;2023-04-22T06:59:19;11.26;118.99
64032;DHT22;50278;47.796;11.968;2023-04-22T07:01:45;11.44;118.99
64032;DHT22;50278;47.796;11.968;2023-04-22T07:04:11;11.53;118.99
64032;DHT22;50278;47.796;11.968;2023-04-22T07:06:36;11.67;118.99
64032;DHT22;50278;47.796;11.968;2023-04-22T07:09:03;11.79;118.99
64032;DHT22;50278;47.796;11.968;2023-04-22T07:11:28;11.92;118.99
64032;DHT22;50278;47.796;11.968;2023-04-22T07:14:05;12.04;118.99
64032;DHT22;50278;47.796;11.968;2023-04-22T07:16:31;12.18;118.99
64032;DHT22;50278;47.796;11.968;2023-04-22T07:18:56;12.30;118.99
64032;DHT22;50278;47.796;11.968;2023-04-22T07:21:23;12.32;118.99
64032;DHT22;50278;47.796;11.968;2023-04-22T07:23:49;12.34;118.99
64032;DHT22;50278;47.796;11.968;2023-04-22T07:26:14;12.52;118.99
64032;DHT22;50278;47.796;11.968;2023-04-22T07:28:40;12.69;118.99
64032;DHT22;50278;47.796;11.968;2023-04-22T07:31:06;12.66;118.99
64032;DHT22;50278;47.796;11.968;2023-04-22T07:33:31;12.73;118.99
64032;DHT22;50278;47.796;11.968;2023-04-22T07:35:57;12.81;118.99
64032;DHT22;50278;47.796;11.968;2023-04-22T07:38:23;12.91;118.99
64032;DHT22;50278;47.796;11.968;2023-04-22T07:40:48;13.03;118.99
64032;DHT22;50278;47.796;11.968;2023-04-22T07:43:14;13.20;118.99
64032;DHT22;50278;47.796;11.968;2023-04-22T07:45:39;13.29;118.99
64032;DHT22;50278;47.796;11.968;2023-04-22T07:48:05;13.30;118.99
64032;DHT22;50278;47.796;11.968;2023-04-22T07:50:30;13.46;118.99
64032;DHT22;50278;47.796;11.968;2023-04-22T07:52:56;13.54;118.99
64032;DHT22;50278;47.796;11.968;2023-04-22T07:55:21;13.68;118.99
64032;DHT22;50278;47.796;11.968;2023-04-22T07:57:47;13.66;118.99
64032;DHT22;50278;47.796;11.968;2023-04-22T08:00:13;13.81;118.99
64032;DHT22;50278;47.796;11.968;2023-04-22T08:02:39;13.90;118.99
64032;DHT22;50278;47.796;11.968;2023-04-22T08:05:05;13.96;117.63
64032;DHT22;50278;47.796;11.968;2023-04-22T08:07:31;14.07;113.32
64032;DHT22;50278;47.796;11.968;2023-04-22T08:09:56;14.07;113.60
64032;DHT22;50278;47.796;11.968;2023-04-22T08:12:22;14.25;118.05
64032;DHT22;50278;47.796;11.968;2023-04-22T08:14:47;14.30;113.45
64032;DHT22;50278;47.796;11.968;2023-04-22T08:17:13;14.33;106.51
64032;DHT22;50278;47.796;11.968;2023-04-22T08:19:38;14.44;113.23
64032;DHT22;50278;47.796;11.968;2023-04-22T08:22:04;14.53;113.40
64032;DHT22;50278;47.796;11.968;2023-04-22T08:24:31;14.77;112.97
64032;DHT22;50278;47.796;11.968;2023-04-22T08:26:56;14.74;112.03
64032;DHT22;50278;47.796;11.968;2023-04-22T08:29:22;14.80;110.71
64032;DHT22;50278;47.796;11.968;2023-04-22T08:31:48;14.83;111.71
64032;DHT22;50278;47.796;11.968;2023-04-22T08:34:13;15.06;106.05
64032;DHT22;50278;47.796;11.968;2023-04-22T08:36:39;15.14;101.86
64032;DHT22;50278;47.796;11.968;2023-04-22T08:39:05;15.22;97.87
64032;DHT22;50278;47.796;11.968;2023-04-22T08:41:33;15.29;99.71
64032;DHT22;50278;47.796;11.968;2023-04-22T08:43:59;15.33;98.87
64032;DHT22;50278;47.796;11.968;2023-04-22T08:46:25;15.57;93.96
64032;DHT22;50278;47.796;11.968;2023-04-22T08:48:53;15.68;91.08
64032;DHT22;50278;47.796;11.968;2023-04-22T08:51:19;15.76;89.70
64032;DHT22;50278;47.796;11.968;2023-04-22T08:53:45;15.82;85.26
64032;DHT22;50278;47.796;11.968;2023-04-22T08:56:11;15.96;87.02
64032;DHT22;50278;47.796;11.968;2023-04-22T08:58:39;16.01;79.46
64032;DHT22;50278;47.796;11.968;2023-04-22T09:01:06;16.22;80.32
64032;DHT22;50278;47.796;11.968;2023-04-22T09:03:33;16.39;81.32
64032;DHT22;50278;47.796;11.968;2023-04-22T09:06:02;16.54;80.94
64032;DHT22;50278;47.796;11.968;2023-04-22T09:08:28;16.65;77.14
64032;DHT22;50278;47.796;11.968;2023-04-22T09:10:53;16.89;80.04
64032;DHT22;50278;47.796;11.968;2023-04-22T09:13:20;16.99;79.81
64032;DHT22;50278;47.796;11.968;2023-04-22T09:15:46;16.66;72.63
64032;DHT22;50278;47.796;11.968;2023-04-22T09:18:16;17.06;75.41
64032;DHT22;50278;47.796;11.968;2023-04-22T09:20:43;17.34;72.06
64032;DHT22;50278;47.796;11.968;2023-04-22T09:23:11;17.38;73.95
64032;DHT22;50278;47.796;11.968;2023-04-22T09:25:37;17.43;76.40
64032;DHT22;50278;47.796;11.968;2023-04-22T09:28:03;17.64;73.05
64032;DHT22;50278;47.796;11.968;2023-04-22T09:30:33;18.05;73.76
64032;DHT22;50278;47.796;11.968;2023-04-22T09:33:01;18.20;75.07
64032;DHT22;50278;47.796;11.968;2023-04-22T09:35:30;18.23;68.38
64032;DHT22;50278;47.796;11.968;2023-04-22T09:37:57;18.39;61.73
64032;DHT22;50278;47.796;11.968;2023-04-22T09:40:23;18.58;64.10
64032;DHT22;50278;47.796;11.968;2023-04-22T09:42:53;18.79;66.28
64032;DHT22;50278;47.796;11.968;2023-04-22T09:45:34;18.74;63.70
64032;DHT22;50278;47.796;11.968;2023-04-22T09:48:10;18.71;62.86
64032;DHT22;50278;47.796;11.968;2023-04-22T09:50:38;18.58;65.85
64032;DHT22;50278;47.796;11.968;2023-04-22T09:53:09;18.72;64.18
64032;DHT22;50278;47.796;11.968;2023-04-22T09:55:37;18.69;65.79
64032;DHT22;50278;47.796;11.968;2023-04-22T09:58:11;18.96;63.85
64032;DHT22;50278;47.796;11.968;2023-04-22T10:00:49;19.15;64.15
64032;DHT22;50278;47.796;11.968;2023-04-22T10:03:15;19.09;64.30
64032;DHT22;50278;47.796;11.968;2023-04-22T10:05:41;19.30;59.70
64032;DHT22;50278;47.796;11.968;2023-04-22T10:08:09;19.41;61.66
64032;DHT22;50278;47.796;11.968;2023-04-22T10:10:35;19.29;61.67
64032;DHT22;50278;47.796;11.968;2023-04-22T10:13:02;19.54;62.73
64032;DHT22;50278;47.796;11.968;2023-04-22T10:15:39;19.58;64.66
64032;DHT22;50278;47.796;11.968;2023-04-22T10:18:07;19.81;64.24
64032;DHT22;50278;47.796;11.968;2023-04-22T10:20:36;19.73;62.68
64032;DHT22;50278;47.796;11.968;2023-04-22T10:23:04;19.77;63.58
64032;DHT22;50278;47.796;11.968;2023-04-22T10:25:30;19.77;62.49
64032;DHT22;50278;47.796;11.968;2023-04-22T10:28:06;19.91;65.86
64032;DHT22;50278;47.796;11.968;2023-04-22T10:30:38;19.74;63.85
64032;DHT22;50278;47.796;11.968;2023-04-22T10:41:23;20.15;60.23
64032;DHT22;50278;47.796;11.968;2023-04-22T10:43:57;20.37;59.80
64032;DHT22;50278;47.796;11.968;2023-04-22T10:48:58;20.62;60.71
64032;DHT22;50278;47.796;11.968;2023-04-22T10:51:44;20.71;58.58
64032;DHT22;50278;47.796;11.968;2023-04-22T10:59:30;21.33;60.88
64032;DHT22;50278;47.796;11.968;2023-04-22T11:02:05;21.48;60.24
64032;DHT22;50278;47.796;11.968;2023-04-22T11:04:30;21.67;63.15
64032;DHT22;50278;47.796;11.968;2023-04-22T11:15:09;21.85;54.81
64032;DHT22;50278;47.796;11.968;2023-04-22T11:17:41;21.98;54.20
64032;DHT22;50278;47.796;11.968;2023-04-22T11:20:07;22.54;53.49
64032;DHT22;50278;47.796;11.968;2023-04-22T11:22:37;22.72;52.12
64032;DHT22;50278;47.796;11.968;2023-04-22T11:25:04;23.07;48.17
64032;DHT22;50278;47.796;11.968;2023-04-22T11:27:30;23.51;47.70
64032;DHT22;50278;47.796;11.968;2023-04-22T11:30:08;23.82;48.18
64032;DHT22;50278;47.796;11.968;2023-04-22T11:32:35;24.43;45.49
64032;DHT22;50278;47.796;11.968;2023-04-22T11:35:05;24.58;44.97
64032;DHT22;50278;47.796;11.968;2023-04-22T11:37:54;24.90;40.72
64032;DHT22;50278;47.796;11.968;2023-04-22T11:40:24;24.97;43.19
64032;DHT22;50278;47.796;11.968;2023-04-22T11:42:50;25.28;40.67
64032;DHT22;50278;47.796;11.968;2023-04-22T11:45:16;25.76;40.38
64032;DHT22;50278;47.796;11.968;2023-04-22T11:47:42;25.84;37.67
64032;DHT22;50278;47.796;11.968;2023-04-22T11:50:11;25.99;35.99
64032;DHT22;50278;47.796;11.968;2023-04-22T11:52:55;26.32;34.28
64032;DHT22;50278;47.796;11.968;2023-04-22T11:55:25;26.26;36.50
64032;DHT22;50278;47.796;11.968;2023-04-22T11:58:04;26.33;35.10
64032;DHT22;50278;47.796;11.968;2023-04-22T12:00:45;27.01;31.70
64032;DHT22;50278;47.796;11.968;2023-04-22T12:03:24;28.11;29.46
64032;DHT22;50278;47.796;11.968;2023-04-22T12:06:01;27.64;33.06
64032;DHT22;50278;47.796;11.968;2023-04-22T12:08:32;27.95;33.63
64032;DHT22;50278;47.796;11.968;2023-04-22T12:11:01;28.10;28.90
64032;DHT22;50278;47.796;11.968;2023-04-22T12:13:32;28.33;31.12
64032;DHT22;50278;47.796;11.968;2023-04-22T12:16:01;28.83;26.79
64032;DHT22;50278;47.796;11.968;2023-04-22T12:18:36;28.42;28.72
64032;DHT22;50278;47.796;11.968;2023-04-22T12:23:43;27.89;29.90
64032;DHT22;50278;47.796;11.968;2023-04-22T12:26:09;28.18;29.61
64032;DHT22;50278;47.796;11.968;2023-04-22T12:28:36;27.96;29.88
64032;DHT22;50278;47.796;11.968;2023-04-22T12:31:02;28.19;27.71
64032;DHT22;50278;47.796;11.968;2023-04-22T12:33:27;29.20;27.17
64032;DHT22;50278;47.796;11.968;2023-04-22T12:35:53;29.45;27.11
64032;DHT22;50278;47.796;11.968;2023-04-22T12:38:19;28.46;27.90
64032;DHT22;50278;47.796;11.968;2023-04-22T12:40:44;28.72;26.51
64032;DHT22;50278;47.796;11.968;2023-04-22T12:43:10;28.74;25.66
64032;DHT22;50278;47.796;11.968;2023-04-22T12:45:36;29.23;22.77
64032;DHT22;50278;47.796;11.968;2023-04-22T12:48:02;30.50;23.85
64032;DHT22;50278;47.796;11.968;2023-04-22T12:50:27;30.92;22.51
64032;DHT22;50278;47.796;11.968;2023-04-22T12:52:53;29.92;22.14
64032;DHT22;50278;47.796;11.968;2023-04-22T12:55:19;30.76;20.89
64032;DHT22;50278;47.796;11.968;2023-04-22T12:57:47;30.49;23.55
64032;DHT22;50278;47.796;11.968;2023-04-22T13:00:13;29.76;24.13
64032;DHT22;50278;47.796;11.968;2023-04-22T13:02:42;31.79;19.83
64032;DHT22;50278;47.796;11.968;2023-04-22T13:05:08;31.08;19.95
64032;DHT22;50278;47.796;11.968;2023-04-22T13:07:35;31.30;22.62
64032;DHT22;50278;47.796;11.968;2023-04-22T13:10:00;30.97;20.79
64032;DHT22;50278;47.796;11.968;2023-04-22T13:12:26;31.08;20.25
64032;DHT22;50278;47.796;11.968;2023-04-22T13:14:51;31.18;20.37
64032;DHT22;50278;47.796;11.968;2023-04-22T13:17:17;31.50;19.02
64032;DHT22;50278;47.796;11.968;2023-04-22T13:19:42;31.11;20.25
64032;DHT22;50278;47.796;11.968;2023-04-22T13:22:08;29.75;21.76
64032;DHT22;50278;47.796;11.968;2023-04-22T13:24:33;28.58;20.06
64032;DHT22;50278;47.796;11.968;2023-04-22T13:26:59;28.43;19.57
64032;DHT22;50278;47.796;11.968;2023-04-22T13:29:25;29.78;18.90
64032;DHT22;50278;47.796;11.968;2023-04-22T13:31:51;29.57;19.12
64032;DHT22;50278;47.796;11.968;2023-04-22T13:34:17;29.45;19.86
64032;DHT22;50278;47.796;11.968;2023-04-22T13:36:42;29.67;21.31
64032;DHT22;50278;47.796;11.968;2023-04-22T13:39:08;29.88;19.04
64032;DHT22;50278;47.796;11.968;2023-04-22T13:41:34;29.49;19.79
64032;DHT22;50278;47.796;11.968;2023-04-22T13:44:00;29.23;22.76
64032;DHT22;50278;47.796;11.968;2023-04-22T13:46:26;28.33;21.13
64032;DHT22;50278;47.796;11.968;2023-04-22T13:48:52;28.79;20.54
64032;DHT22;50278;47.796;11.968;2023-04-22T13:51:18;29.60;19.68
64032;DHT22;50278;47.796;11.968;2023-04-22T13:53:44;30.04;18.67
64032;DHT22;50278;47.796;11.968;2023-04-22T13:56:10;30.95;17.43
64032;DHT22;50278;47.796;11.968;2023-04-22T13:58:39;30.63;19.09
64032;DHT22;50278;47.796;11.968;2023-04-22T14:01:06;31.48;18.65
64032;DHT22;50278;47.796;11.968;2023-04-22T14:03:31;31.39;18.06
64032;DHT22;50278;47.796;11.968;2023-04-22T14:05:57;29.81;18.92
64032;DHT22;50278;47.796;11.968;2023-04-22T14:08:23;30.24;18.02
64032;DHT22;50278;47.796;11.968;2023-04-22T14:10:48;30.84;17.22
64032;DHT22;50278;47.796;11.968;2023-04-22T14:13:14;30.38;17.82
64032;DHT22;50278;47.796;11.968;2023-04-22T14:15:39;31.08;15.24
64032;DHT22;50278;47.796;11.968;2023-04-22T14:18:05;31.18;13.73
64032;DHT22;50278;47.796;11.968;2023-04-22T14:20:30;31.19;15.70
64032;DHT22;50278;47.796;11.968;2023-04-22T14:22:56;31.73;15.01
64032;DHT22;50278;47.796;11.968;2023-04-22T14:25:21;30.02;18.03
64032;DHT22;50278;47.796;11.968;2023-04-22T14:27:47;29.35;17.64
64032;DHT22;50278;47.796;11.968;2023-04-22T14:30:13;29.96;16.03
64032;DHT22;50278;47.796;11.968;2023-04-22T14:32:38;31.05;17.50
64032;DHT22;50278;47.796;11.968;2023-04-22T14:35:04;30.42;16.52
64032;DHT22;50278;47.796;11.968;2023-04-22T14:37:30;31.16;16.73
64032;DHT22;50278;47.796;11.968;2023-04-22T14:39:56;31.11;15.57
64032;DHT22;50278;47.796;11.968;2023-04-22T14:42:23;30.89;14.32
64032;DHT22;50278;47.796;11.968;2023-04-22T14:44:49;32.08;13.77
64032;DHT22;50278;47.796;11.968;2023-04-22T14:47:14;30.32;16.43
64032;DHT22;50278;47.796;11.968;2023-04-22T14:49:40;31.76;12.27
64032;DHT22;50278;47.796;11.968;2023-04-22T14:52:05;31.15;14.93
64032;DHT22;50278;47.796;11.968;2023-04-22T14:54:31;31.01;13.91
64032;DHT22;50278;47.796;11.968;2023-04-22T14:56:57;32.59;11.72
64032;DHT22;50278;47.796;11.968;2023-04-22T14:59:23;31.25;14.32
64032;DHT22;50278;47.796;11.968;2023-04-22T15:01:48;31.58;13.89
64032;DHT22;50278;47.796;11.968;2023-04-22T15:04:14;31.68;14.42
64032;DHT22;50278;47.796;11.968;2023-04-22T15:06:41;32.24;14.23
64032;DHT22;50278;47.796;11.968;2023-04-22T15:09:06;32.39;13.12
64032;DHT22;50278;47.796;11.968;2023-04-22T15:11:32;32.23;13.10
64032;DHT22;50278;47.796;11.968;2023-04-22T15:13:57;33.19;11.38
64032;DHT22;50278;47.796;11.968;2023-04-22T15:16:23;32.86;13.42
64032;DHT22;50278;47.796;11.968;2023-04-22T15:18:48;32.42;10.08
64032;DHT22;50278;47.796;11.968;2023-04-22T15:21:14;33.67;9.22
64032;DHT22;50278;47.796;11.968;2023-04-22T15:23:40;32.30;11.56
64032;DHT22;50278;47.796;11.968;2023-04-22T15:26:05;33.08;13.49
64032;DHT22;50278;47.796;11.968;2023-04-22T15:28:32;32.10;12.20
64032;DHT22;50278;47.796;11.968;2023-04-22T15:30:57;32.32;14.39
64032;DHT22;50278;47.796;11.968;2023-04-22T15:33:23;31.52;14.35
64032;DHT22;50278;47.796;11.968;2023-04-22T15:35:48;31.18;14.06
64032;DHT22;50278;47.796;11.968;2023-04-22T15:38:17;31.37;12.84
64032;DHT22;50278;47.796;11.968;2023-04-22T15:40:42;32.72;10.80
64032;DHT22;50278;47.796;11.968;2023-04-22T15:43:08;31.16;13.58
64032;DHT22;50278;47.796;11.968;2023-04-22T15:45:33;30.18;14.49